Time;durP1;ratioP1;P1;durP2;ratioP2;P2;SDS_P1;SDS_P2;PMS_P1;PMS_P2;Temp;Humidity;BMP_temperature;BMP_pressure;BME280_temperature;BME280_humidity;BME280_pressure;Samples;Min_cycle;Max_cycle;Signal;HPM_P1;HPM_P2
2022/08/17 00:00:28;;;;;;;6.03;4.10;;;19.40;98.00;;;20.47;100.00;97554.31;5065563;28;20954;-77
2022/08/17 00:03:15;;;;;;;4.70;3.57;;;19.50;97.80;;;20.42;100.00;97554.28;5067464;28;20440;-77
2022/08/17 00:05:49;;;;;;;4.03;3.63;;;19.50;97.80;;;20.31;100.00;97541.22;5065930;28;20459;-77
2022/08/17 00:08:22;;;;;;;5.60;3.70;;;19.30;98.10;;;20.29;100.00;97544.16;5077116;28;20998;-76
2022/08/17 00:10:54;;;;;;;5.20;3.97;;;19.20;98.30;;;20.25;100.00;97535.09;5061870;28;20468;-77
2022/08/17 00:13:27;;;;;;;8.00;3.90;;;19.30;98.20;;;20.28;100.00;97531.94;5060890;28;20521;-77
2022/08/17 00:15:59;;;;;;;4.07;3.70;;;19.30;98.10;;;20.35;100.00;97539.66;5065391;28;20506;-77
2022/08/17 00:18:30;;;;;;;4.67;3.87;;;19.30;98.30;;;20.34;100.00;97536.19;5064498;28;20445;-77
2022/08/17 00:21:23;;;;;;;4.63;3.87;;;19.30;98.30;;;20.25;100.00;97532.44;5066310;28;20543;-77
2022/08/17 00:23:54;;;;;;;5.27;4.40;;;19.30;98.10;;;20.22;100.00;97537.47;5065834;28;20448;-77
2022/08/17 00:26:26;;;;;;;4.23;3.33;;;19.30;98.20;;;20.18;100.00;97531.06;5064256;28;20468;-77
2022/08/17 00:29:13;;;;;;;4.10;3.70;;;19.30;98.10;;;20.17;100.00;97529.47;5065584;28;20511;-77
2022/08/17 00:31:48;;;;;;;4.10;3.50;;;19.30;98.30;;;20.16;100.00;97528.69;5065853;28;20520;-77
2022/08/17 00:34:16;;;;;;;5.43;3.83;;;19.20;98.40;;;20.20;100.00;97535.06;5065881;28;20498;-77
2022/08/17 00:36:45;;;;;;;4.50;3.83;;;19.20;98.40;;;20.21;100.00;97526.03;5064699;28;20462;-78
2022/08/17 00:39:14;;;;;;;4.37;3.80;;;19.20;98.30;;;20.15;100.00;97527.09;5065570;28;21008;-77
2022/08/17 00:41:44;;;;;;;4.30;3.80;;;19.20;98.40;;;20.15;100.00;97526.28;5066615;28;20535;-77
2022/08/17 00:44:13;;;;;;;4.10;3.70;;;19.10;98.40;;;20.17;100.00;97522.31;5066649;28;20464;-77
2022/08/17 00:46:46;;;;;;;8.13;4.83;;;19.20;98.50;;;20.13;100.00;97523.09;5062532;28;20476;-77
2022/08/17 00:49:18;;;;;;;4.60;3.70;;;19.10;98.40;;;20.17;100.00;97522.31;5065296;28;21058;-77
2022/08/17 00:51:53;;;;;;;4.37;3.97;;;19.20;98.50;;;20.21;100.00;97514.59;5065868;28;20468;-76
2022/08/17 00:54:32;;;;;;;4.90;4.07;;;19.10;98.50;;;20.22;100.00;97511.72;5063781;28;20451;-77
2022/08/17 00:57:17;;;;;;;5.63;4.43;;;19.10;98.50;;;20.20;100.00;97519.13;5063740;28;20570;-77
2022/08/17 00:59:52;;;;;;;4.47;4.03;;;19.20;98.20;;;20.16;100.00;97526.03;5061597;28;20492;-76
2022/08/17 01:02:38;;;;;;;4.43;4.00;;;19.10;98.30;;;20.10;100.00;97525.19;5062055;28;20464;-76
2022/08/17 01:05:24;;;;;;;5.63;3.90;;;19.10;98.50;;;20.07;100.00;97524.94;5061380;28;20460;-77
2022/08/17 01:07:54;;;;;;;4.73;4.13;;;19.10;98.30;;;20.02;100.00;97522.25;5059832;28;20504;-76
2022/08/17 01:10:33;;;;;;;4.97;3.83;;;19.10;98.30;;;19.96;100.00;97523.28;5061658;28;20504;-77
2022/08/17 01:13:26;;;;;;;4.30;3.77;;;19.00;98.30;;;19.96;100.00;97517.97;5060972;28;20563;-77
2022/08/17 01:16:00;;;;;;;4.83;3.93;;;19.00;98.50;;;19.96;100.00;97517.97;5060579;28;21197;-76
2022/08/17 01:18:30;;;;;;;4.20;3.80;;;19.00;98.50;;;19.98;100.00;97516.69;5062050;28;20880;-77
2022/08/17 01:21:07;;;;;;;10.53;4.10;;;19.00;98.60;;;20.01;100.00;97521.47;5063734;28;20511;-77
2022/08/17 01:23:41;;;;;;;4.57;4.03;;;19.00;98.70;;;19.99;100.00;97528.88;5059685;28;20456;-77
2022/08/17 01:26:09;;;;;;;4.50;3.70;;;18.90;98.80;;;19.98;100.00;97526.50;5060948;28;20460;-77
2022/08/17 01:28:38;;;;;;;4.63;4.20;;;18.90;99.10;;;19.88;100.00;97515.84;5060971;28;20543;-76
2022/08/17 01:31:25;;;;;;;6.10;4.80;;;18.90;98.70;;;19.87;100.00;97508.94;5063598;28;20459;-77
2022/08/17 01:33:58;;;;;;;4.90;3.93;;;18.90;98.80;;;19.89;100.00;97520.06;5059872;28;20468;-77
2022/08/17 01:36:29;;;;;;;6.00;3.60;;;19.00;98.50;;;19.87;100.00;97515.03;5061581;28;20461;-77
2022/08/17 01:39:00;;;;;;;4.67;3.73;;;19.00;98.60;;;19.80;100.00;97521.63;5062140;28;20464;-77
2022/08/17 01:41:30;;;;;;;5.00;4.10;;;18.90;98.70;;;19.76;100.00;97520.53;5061809;28;20440;-76
2022/08/17 01:44:05;;;;;;;6.10;3.93;;;18.90;98.90;;;19.78;100.00;97521.91;5063480;28;20534;-77
2022/08/17 01:46:37;;;;;;;5.70;4.07;;;18.80;98.90;;;19.78;100.00;97521.91;5059809;28;20982;-77
2022/08/17 01:49:08;;;;;;;5.37;3.77;;;18.90;98.90;;;19.75;100.00;97511.78;5062376;28;20550;-78
2022/08/17 01:51:37;;;;;;;10.33;4.17;;;18.80;98.90;;;19.74;100.00;97512.06;5060923;28;20468;-76
2022/08/17 01:54:13;;;;;;;11.87;3.93;;;18.80;99.00;;;19.70;100.00;97508.31;5061558;28;20460;-77
2022/08/17 01:56:48;;;;;;;4.80;4.30;;;18.80;99.00;;;19.67;100.00;97516.81;5062943;28;20459;-76
2022/08/17 01:59:18;;;;;;;6.00;4.13;;;18.80;99.00;;;19.62;100.00;97520.22;5061246;28;20472;-76
2022/08/17 02:01:47;;;;;;;4.60;3.97;;;18.70;99.00;;;19.54;100.00;97520.72;5063068;28;21006;-76
2022/08/17 02:04:16;;;;;;;4.83;4.27;;;18.60;99.20;;;19.48;100.00;97519.06;5059159;28;20513;-77
2022/08/17 02:06:46;;;;;;;4.27;3.87;;;18.60;99.20;;;19.51;100.00;97524.66;5060377;28;20460;-76
2022/08/17 02:09:24;;;;;;;4.90;3.90;;;18.60;99.30;;;19.54;100.00;97518.84;5062283;28;20582;-76
2022/08/17 02:12:02;;;;;;;6.57;4.37;;;18.60;99.40;;;19.55;100.00;97517.78;5060149;28;20458;-76
2022/08/17 02:14:51;;;;;;;5.30;4.40;;;18.60;99.50;;;19.54;100.00;97529.47;5059127;28;20986;-76
2022/08/17 02:17:19;;;;;;;6.67;3.93;;;18.50;99.40;;;19.53;100.00;97530.53;5060033;28;20472;-77
2022/08/17 02:19:49;;;;;;;5.23;4.10;;;18.50;99.40;;;19.48;100.00;97533.13;5061534;28;20897;-76
2022/08/17 02:22:19;;;;;;;5.90;4.77;;;18.50;99.40;;;19.45;100.00;97531.00;5061111;28;20557;-76
2022/08/17 02:24:49;;;;;;;4.20;3.80;;;18.50;99.50;;;19.45;100.00;97528.34;5059947;28;21013;-76
2022/08/17 02:27:30;;;;;;;7.60;3.83;;;18.60;99.40;;;19.42;100.00;97528.88;5060018;28;20456;-76
2022/08/17 02:29:58;;;;;;;4.53;3.97;;;18.50;99.50;;;19.40;100.00;97525.63;5060889;28;20504;-76
2022/08/17 02:32:27;;;;;;;7.60;5.00;;;18.50;99.70;;;19.39;100.00;97517.94;5060444;28;20531;-76
2022/08/17 02:34:58;;;;;;;8.73;3.93;;;18.40;99.80;;;19.38;100.00;97522.44;5061598;28;20463;-77
2022/08/17 02:37:28;;;;;;;4.90;4.40;;;18.40;99.70;;;19.37;100.00;97518.19;5058056;28;21006;-76
2022/08/17 02:39:59;;;;;;;5.57;4.33;;;18.40;99.80;;;19.36;100.00;97519.25;5059582;28;20535;-77
2022/08/17 02:42:32;;;;;;;4.73;4.27;;;18.40;99.70;;;19.31;100.00;97516.56;5059217;28;20499;-76
2022/08/17 02:45:04;;;;;;;3.87;3.50;;;18.40;99.70;;;19.27;100.00;97519.97;5060606;28;20456;-76
2022/08/17 02:47:33;;;;;;;4.57;3.97;;;18.40;99.90;;;19.33;100.00;97519.75;5059492;28;20467;-76
2022/08/17 02:50:02;;;;;;;6.17;4.37;;;18.30;99.90;;;19.36;100.00;97519.25;5061682;28;20504;-76
2022/08/17 02:52:34;;;;;;;4.80;4.30;;;18.30;99.90;;;19.39;100.00;97513.44;5056889;28;21343;-77
2022/08/17 02:55:16;;;;;;;5.40;4.43;;;18.40;99.90;;;19.37;100.00;97514.72;5061034;28;20486;-76
2022/08/17 02:57:46;;;;;;;4.07;3.67;;;18.30;99.90;;;19.38;100.00;97522.44;5062314;28;20506;-77
2022/08/17 03:00:20;;;;;;;4.30;3.90;;;18.30;99.90;;;19.38;100.00;97521.63;5056902;28;20515;-77
2022/08/17 03:02:49;;;;;;;4.37;3.97;;;18.30;99.90;;;19.39;100.00;97524.03;5061251;28;20452;-76
2022/08/17 03:05:22;;;;;;;4.97;4.13;;;18.30;99.90;;;19.40;100.00;97522.19;5061909;28;20567;-76
2022/08/17 03:07:52;;;;;;;4.80;4.30;;;18.40;99.90;;;19.37;100.00;97523.47;5061375;28;20887;-76
2022/08/17 03:10:24;;;;;;;4.40;3.77;;;18.30;99.90;;;19.37;100.00;97520.84;5058379;28;20492;-76
2022/08/17 03:12:54;;;;;;;4.70;3.83;;;18.30;99.90;;;19.35;100.00;97517.66;5059074;28;20469;-77
2022/08/17 03:15:27;;;;;;;4.77;4.00;;;18.30;99.90;;;19.36;100.00;97518.47;5061415;28;20562;-76
2022/08/17 03:17:57;;;;;;;5.97;4.87;;;18.30;99.90;;;19.33;100.00;97521.63;5058544;28;20457;-77
2022/08/17 03:20:28;;;;;;;5.80;4.30;;;18.30;99.90;;;19.29;100.00;97523.97;5057618;28;20508;-76
2022/08/17 03:22:59;;;;;;;5.07;3.90;;;18.30;99.90;;;19.32;100.00;97535.94;5061026;28;20558;-77
2022/08/17 03:25:39;;;;;;;4.83;4.17;;;18.30;99.90;;;19.32;100.00;97533.28;5059190;28;20955;-77
2022/08/17 03:28:13;;;;;;;4.67;3.73;;;18.30;99.90;;;19.27;100.00;97544.63;5062366;28;20500;-76
2022/08/17 03:30:42;;;;;;;5.93;4.63;;;18.30;99.90;;;19.23;100.00;97585.97;5062083;28;20488;-77
2022/08/17 03:33:12;;;;;;;4.80;4.20;;;18.30;99.90;;;19.21;100.00;97566.88;5061241;28;20514;-77
2022/08/17 03:35:42;;;;;;;4.67;4.10;;;18.40;99.90;;;19.10;100.00;97589.03;5062009;28;20468;-77
2022/08/17 03:38:13;;;;;;;6.30;4.30;;;18.20;99.90;;;19.11;100.00;97564.16;5060095;28;21052;-77
2022/08/17 03:40:46;;;;;;;5.10;4.57;;;18.30;99.90;;;19.09;100.00;97560.94;5062712;28;20492;-77
2022/08/17 03:43:31;;;;;;;4.53;4.00;;;18.20;99.90;;;19.15;100.00;97559.94;5063553;28;20957;-76
2022/08/17 03:57:24;;;;;;;4.73;3.83;;;18.40;99.90;;;19.30;100.00;97552.06;5065695;28;20464;-77
2022/08/17 03:59:55;;;;;;;6.00;4.70;;;18.40;99.90;;;19.30;100.00;97562.69;5066802;28;20456;-76
2022/08/17 04:02:28;;;;;;;4.10;3.60;;;18.40;99.90;;;19.32;100.00;97555.28;5063808;28;20537;-76
2022/08/17 04:04:58;;;;;;;4.70;4.10;;;18.40;99.90;;;19.35;100.00;97538.88;5064173;28;20551;-77
2022/08/17 04:07:30;;;;;;;6.60;4.70;;;18.40;99.90;;;19.37;100.00;97547.34;5064257;28;20440;-77
2022/08/17 04:09:59;;;;;;;4.83;4.17;;;18.40;99.90;;;19.38;100.00;97543.66;5062285;28;20474;-77
2022/08/17 04:12:43;;;;;;;5.30;4.20;;;18.50;99.90;;;19.38;100.00;97535.69;5060276;28;20465;-76
2022/08/17 04:15:13;;;;;;;4.90;4.40;;;18.50;99.90;;;19.40;100.00;97524.84;5062871;28;20460;-76
2022/08/17 04:17:43;;;;;;;4.87;4.10;;;18.50;99.90;;;19.42;100.00;97523.56;5063297;28;20465;-77
2022/08/17 04:20:14;;;;;;;6.33;4.10;;;18.50;99.90;;;19.40;100.00;97511.59;5061905;28;20492;-76
2022/08/17 04:22:57;;;;;;;6.60;4.57;;;18.40;99.90;;;19.39;100.00;97518.75;5060703;28;20545;-77
2022/08/17 04:25:28;;;;;;;5.07;4.00;;;18.50;99.90;;;19.41;100.00;97511.34;5077172;28;20487;-76
2022/08/17 04:27:59;;;;;;;4.47;4.07;;;18.50;99.90;;;19.42;100.00;97512.94;5066891;28;20504;-76
2022/08/17 04:30:32;;;;;;;4.40;4.00;;;18.50;99.90;;;19.42;100.00;97502.34;5065358;28;20537;-76
2022/08/17 04:33:07;;;;;;;9.77;4.20;;;18.50;99.90;;;19.41;100.00;97502.59;5062333;28;20962;-76
2022/08/17 04:35:40;;;;;;;4.30;3.70;;;18.60;99.90;;;19.41;100.00;97500.75;5064119;28;20505;-76
2022/08/17 04:38:15;;;;;;;4.70;3.70;;;18.50;99.90;;;19.44;100.00;97491.47;5065694;28;20482;-77
2022/08/17 04:43:34;;;;;;;5.20;4.20;;;18.60;99.90;;;19.43;100.00;97496.00;5060789;28;20468;-77
2022/08/17 04:46:07;;;;;;;6.90;4.20;;;18.60;99.90;;;19.43;100.00;97490.69;5063706;28;20469;-77
2022/08/17 04:48:39;;;;;;;4.60;4.20;;;18.60;99.90;;;19.42;100.00;97489.09;5062088;28;20472;-77
2022/08/17 04:51:14;;;;;;;4.87;4.03;;;18.60;99.90;;;19.43;100.00;97497.84;5061871;28;20492;-76
2022/08/17 04:53:50;;;;;;;5.10;4.10;;;18.50;99.90;;;19.45;100.00;97493.88;5063272;28;20533;-77
2022/08/17 04:56:25;;;;;;;8.10;4.57;;;18.60;99.90;;;19.45;100.00;97499.19;5058535;28;20467;-77
2022/08/17 04:58:59;;;;;;;5.50;3.97;;;18.60;99.90;;;19.47;100.00;97509.53;5059143;28;20456;-77
2022/08/17 05:01:32;;;;;;;8.33;5.87;;;18.60;99.90;;;19.47;100.00;97504.25;5061988;28;20470;-77
2022/08/17 05:04:05;;;;;;;8.50;5.13;;;18.60;99.90;;;19.49;100.00;97497.63;5059267;28;20462;-77
2022/08/17 05:06:54;;;;;;;4.90;4.40;;;18.50;99.90;;;19.51;100.00;97500.00;5060983;28;20453;-77
2022/08/17 05:09:23;;;;;;;7.47;4.78;;;18.60;99.90;;;19.52;100.00;97507.72;5058585;28;21018;-80
2022/08/17 05:11:52;;;;;;;6.00;4.17;;;18.60;99.90;;;19.55;100.00;97501.06;5076707;28;20232;-80
2022/08/17 05:14:25;;;;;;;9.57;4.53;;;18.60;99.90;;;19.61;100.00;97502.69;5061786;28;20551;-81
2022/08/17 05:17:01;;;;;;;4.90;4.13;;;18.60;99.90;;;19.65;100.00;97495.00;5062157;28;20529;-80
2022/08/17 05:19:35;;;;;;;11.17;4.57;;;18.60;99.90;;;19.67;100.00;97498.22;5064317;28;20582;-86
2022/08/17 05:22:05;;;;;;;5.93;4.53;;;18.70;99.90;;;19.68;100.00;97484.69;5062982;28;20475;-81
2022/08/17 05:24:34;;;;;;;5.57;4.57;;;18.70;99.90;;;19.71;100.00;97483.41;5059814;28;20468;-81
2022/08/17 05:27:18;;;;;;;5.20;4.30;;;18.70;99.90;;;19.74;100.00;97482.88;5060999;28;20467;-82
2022/08/17 05:29:49;;;;;;;4.43;4.03;;;18.80;99.90;;;19.78;100.00;97483.94;5061064;28;20457;-83
2022/08/17 05:32:21;;;;;;;5.20;4.70;;;18.80;99.90;;;19.80;100.00;97487.13;5060123;28;20531;-80
2022/08/17 05:35:09;;;;;;;4.60;4.20;;;18.80;99.90;;;19.84;100.00;97488.22;5062567;28;20477;-87
2022/08/17 05:37:38;;;;;;;5.90;5.27;;;18.90;99.90;;;19.85;100.00;97480.00;5060851;28;20468;-80
2022/08/17 05:40:09;;;;;;;5.20;4.60;;;18.90;99.90;;;19.89;100.00;97480.25;5060771;28;20479;-80
2022/08/17 05:42:38;;;;;;;5.03;4.40;;;18.90;99.90;;;19.93;100.00;97482.13;5061478;28;20563;-79
2022/08/17 05:45:10;;;;;;;4.60;4.10;;;18.90;99.90;;;19.95;100.00;97487.19;5059771;28;20497;-80
2022/08/17 05:47:40;;;;;;;6.13;4.57;;;19.00;99.90;;;19.97;100.00;97490.38;5061432;28;20554;-79
2022/08/17 05:50:13;;;;;;;5.43;4.43;;;19.00;99.90;;;19.98;100.00;97478.72;5063899;28;20464;-80
2022/08/17 05:52:58;;;;;;;9.10;4.70;;;19.00;99.90;;;20.02;100.00;97477.13;5059158;28;20538;-79
2022/08/17 05:55:42;;;;;;;6.33;4.00;;;19.00;99.90;;;20.04;100.00;97472.34;5062144;28;20524;-80
2022/08/17 05:58:27;;;;;;;5.00;4.50;;;19.10;99.90;;;20.08;100.00;97481.41;5059965;28;20527;-79
2022/08/17 06:01:07;;;;;;;4.93;4.43;;;19.10;99.90;;;20.12;100.00;97479.03;5061268;28;20460;-79
2022/08/17 06:03:49;;;;;;;4.20;3.80;;;19.10;99.90;;;20.13;100.00;97476.13;5062555;28;20467;-80
2022/08/17 06:06:38;;;;;;;10.47;4.50;;;19.20;99.90;;;20.15;100.00;97463.34;5059322;28;20541;-79
2022/08/17 06:09:34;;;;;;;7.50;4.20;;;19.20;99.90;;;20.18;100.00;97467.34;5058628;28;20495;-79
2022/08/17 06:12:34;;;;;;;6.00;4.30;;;19.20;99.90;;;20.20;100.00;97473.97;5056857;28;20515;-79
2022/08/17 06:15:28;;;;;;;6.43;4.90;;;19.40;99.90;;;20.22;100.00;97493.13;5059187;28;20460;-79
2022/08/17 06:18:04;;;;;;;4.10;3.70;;;19.30;99.90;;;20.25;100.00;97499.75;5058131;28;20507;-79
2022/08/17 06:20:46;;;;;;;5.07;4.20;;;19.40;99.90;;;20.28;100.00;97499.25;5060012;28;21751;-79
2022/08/17 06:23:24;;;;;;;4.50;4.10;;;19.40;99.90;;;20.28;100.00;97500.06;5060226;28;20464;-79
2022/08/17 06:26:02;;;;;;;5.87;4.40;;;19.50;99.90;;;20.29;100.00;97506.97;5065102;28;20494;-80
2022/08/17 06:28:41;;;;;;;4.53;4.10;;;19.60;99.90;;;20.32;100.00;97510.97;5060974;28;20463;-79
2022/08/17 06:31:20;;;;;;;4.67;3.90;;;19.50;99.90;;;20.37;100.00;97509.13;5060051;28;20572;-81
2022/08/17 06:33:51;;;;;;;4.67;3.83;;;19.50;99.90;;;20.41;100.00;97496.13;5059370;28;20530;-80
2022/08/17 06:36:47;;;;;;;3.77;3.47;;;19.60;99.90;;;20.46;100.00;97507.53;5058217;28;20515;-80
2022/08/17 06:39:36;;;;;;;4.60;4.20;;;19.60;99.90;;;20.49;100.00;97507.00;5058694;28;20464;-79
2022/08/17 06:42:21;;;;;;;5.53;4.40;;;19.60;99.90;;;20.53;100.00;97505.44;5059277;28;20468;-79
2022/08/17 06:45:16;;;;;;;6.37;4.60;;;19.60;99.90;;;20.59;100.00;97516.84;5060549;28;20456;-80
2022/08/17 06:47:53;;;;;;;7.30;4.23;;;19.70;99.90;;;20.64;100.00;97516.06;5060640;28;20473;-80
2022/08/17 06:50:36;;;;;;;5.87;3.93;;;19.80;99.90;;;20.70;100.00;97520.31;5059744;28;20950;-80
2022/08/17 06:53:17;;;;;;;5.33;4.10;;;19.80;99.90;;;20.75;100.00;97525.66;5059828;28;20540;-80
2022/08/17 06:55:58;;;;;;;5.63;4.03;;;19.80;99.90;;;20.78;100.00;97525.91;5057763;28;20500;-80
2022/08/17 06:58:30;;;;;;;6.03;3.90;;;19.90;99.90;;;20.76;100.00;97530.69;5061116;28;20947;-80
2022/08/17 07:01:09;;;;;;;4.90;4.23;;;19.80;99.80;;;20.77;100.00;97521.66;5062215;28;21179;-80
2022/08/17 07:03:48;;;;;;;5.40;4.50;;;19.90;99.80;;;20.80;100.00;97526.44;5060879;28;20478;-80
2022/08/17 07:06:24;;;;;;;5.00;4.13;;;20.10;99.70;;;20.85;100.00;97525.66;5061212;28;21917;-80
2022/08/17 07:09:01;;;;;;;4.90;3.70;;;20.10;99.70;;;20.90;100.00;97523.78;5060925;28;20838;-79
2022/08/17 07:11:38;;;;;;;8.60;4.10;;;20.20;99.80;;;20.95;100.00;97525.66;5060744;28;20534;-80
2022/08/17 07:14:27;;;;;;;4.90;4.13;;;20.20;99.70;;;20.99;100.00;97529.38;5059413;28;20461;-80
2022/08/17 07:17:01;;;;;;;6.17;4.13;;;20.20;99.50;;;21.02;100.00;97523.53;5061338;28;20457;-80
2022/08/17 07:19:34;;;;;;;9.90;4.13;;;20.30;99.60;;;21.06;100.00;97537.91;5065153;28;20487;-80
2022/08/17 07:22:20;;;;;;;8.40;4.20;;;20.30;99.60;;;21.11;100.00;97523.81;5063128;28;20475;-80
2022/08/17 07:24:57;;;;;;;4.93;3.80;;;20.30;99.80;;;21.15;100.00;97516.91;5064497;28;20474;-79
2022/08/17 07:27:30;;;;;;;5.80;4.10;;;20.40;99.60;;;21.18;100.00;97519.81;5063853;28;20456;-80
2022/08/17 07:30:06;;;;;;;7.00;4.07;;;20.30;99.70;;;21.23;100.00;97509.19;5065015;28;21212;-79
2022/08/17 07:32:48;;;;;;;8.30;4.17;;;20.30;99.80;;;21.30;100.00;97514.22;5064475;28;20507;-80
2022/08/17 07:35:30;;;;;;;10.33;4.60;;;20.40;99.70;;;21.34;100.00;97513.44;5063216;28;20468;-80
2022/08/17 07:38:14;;;;;;;6.13;4.67;;;20.40;99.90;;;21.38;100.00;97514.47;5063887;28;20465;-79
2022/08/17 07:41:03;;;;;;;6.13;4.27;;;20.60;99.60;;;21.43;100.00;97519.78;5063753;28;20821;-79
2022/08/17 07:43:35;;;;;;;9.37;4.30;;;20.60;99.50;;;21.48;100.00;97522.44;5063071;28;20463;-79
2022/08/17 07:49:24;;;;;;;5.50;4.40;;;20.70;99.10;;;21.61;100.00;97522.94;5064783;28;20471;-80
2022/08/17 07:51:59;;;;;;;6.53;5.57;;;20.80;99.20;;;21.67;100.00;97522.66;5061151;28;20495;-79
2022/08/17 07:54:49;;;;;;;6.77;4.80;;;20.80;99.20;;;21.73;100.00;97523.44;5061372;28;20453;-80
2022/08/17 07:57:34;;;;;;;8.20;4.20;;;20.90;99.20;;;21.78;100.00;97512.78;5063842;28;20459;-79
2022/08/17 08:00:21;;;;;;;6.03;4.60;;;21.00;99.30;;;21.84;100.00;97520.47;5061653;28;20451;-79
2022/08/17 08:03:12;;;;;;;5.30;4.23;;;21.00;99.20;;;21.89;100.00;97530.31;5068445;28;20874;-79
2022/08/17 08:05:54;;;;;;;5.27;4.23;;;21.10;99.10;;;21.96;100.00;97528.19;5064092;28;20463;-80
2022/08/17 08:08:32;;;;;;;4.27;3.83;;;21.20;99.10;;;22.03;100.00;97536.69;5063454;28;20943;-80
2022/08/17 08:11:08;;;;;;;9.93;4.27;;;21.30;99.20;;;22.08;100.00;97536.63;5061402;28;21019;-82
2022/08/17 08:13:41;;;;;;;7.73;4.73;;;21.30;99.20;;;22.15;100.00;97533.69;5061521;28;21039;-79
2022/08/17 08:16:25;;;;;;;5.30;4.40;;;21.40;99.00;;;22.20;100.00;97537.13;5062464;28;20546;-80
2022/08/17 08:18:58;;;;;;;5.30;3.80;;;21.50;98.90;;;22.24;100.00;97537.38;5063007;28;20558;-79
2022/08/17 08:21:45;;;;;;;11.10;4.33;;;21.50;98.50;;;22.29;100.00;97534.69;5061027;28;20452;-80
2022/08/17 08:24:46;;;;;;;6.00;4.40;;;21.60;98.50;;;22.34;100.00;97540.78;5064251;28;20468;-79
2022/08/17 08:27:33;;;;;;;5.80;4.33;;;21.60;98.50;;;22.38;100.00;97533.84;5062513;28;20543;-79
2022/08/17 08:30:10;;;;;;;5.20;4.13;;;21.70;98.40;;;22.39;100.00;97538.09;5061836;28;20526;-79
2022/08/17 08:33:15;;;;;;;4.77;3.90;;;21.70;98.00;;;22.42;100.00;97545.53;5063050;28;20541;-79
2022/08/17 08:35:55;;;;;;;4.90;3.60;;;21.70;98.20;;;22.47;100.00;97550.03;5062880;28;21039;-79
2022/08/17 08:38:39;;;;;;;9.00;4.87;;;21.70;98.30;;;22.52;100.00;97561.50;5062075;28;21021;-79
2022/08/17 08:41:41;;;;;;;4.97;4.13;;;21.70;98.00;;;22.58;100.00;97564.91;5062865;28;20469;-79
2022/08/17 08:44:35;;;;;;;5.93;4.40;;;21.70;98.00;;;22.62;100.00;97571.28;5063491;28;20451;-79
2022/08/17 08:47:45;;;;;;;9.03;4.10;;;21.80;98.10;;;22.68;100.00;97564.06;5064011;28;20586;-79
2022/08/17 08:50:31;;;;;;;5.70;4.37;;;21.90;98.10;;;22.70;97.72;97573.38;5064246;28;20490;-79
2022/08/17 08:53:26;;;;;;;5.20;3.63;;;22.00;97.60;;;22.74;97.96;97571.75;5063170;28;20501;-80
2022/08/17 08:56:02;;;;;;;5.30;4.10;;;22.10;97.70;;;22.78;97.77;97588.00;5058903;28;20541;-79
2022/08/17 08:58:49;;;;;;;4.60;3.77;;;22.20;97.50;;;22.82;98.00;97584.53;5060738;28;20469;-81
2022/08/17 09:01:31;;;;;;;7.70;4.40;;;22.20;97.50;;;22.89;97.73;97587.69;5061264;28;21028;-82
2022/08/17 09:04:25;;;;;;;4.40;3.80;;;22.30;97.50;;;22.92;95.90;97579.13;5060355;28;21070;-81
2022/08/17 09:07:11;;;;;;;6.80;4.00;;;22.40;97.00;;;23.06;95.82;97574.75;5059172;28;21493;-82
2022/08/17 09:09:59;;;;;;;8.50;4.23;;;22.50;97.20;;;23.15;93.51;97564.25;5063262;28;20499;-82
2022/08/17 09:12:41;;;;;;;9.20;3.97;;;22.50;96.80;;;23.27;93.04;97572.72;5075321;28;20561;-82
2022/08/17 09:15:19;;;;;;;7.23;3.70;;;22.70;96.70;;;23.39;91.87;97570.47;5058248;28;20468;-81
2022/08/17 09:18:01;;;;;;;10.93;4.93;;;22.80;96.60;;;23.43;88.42;97576.84;5062866;28;21069;-86
2022/08/17 09:20:57;;;;;;;6.70;4.10;;;22.70;95.80;;;23.52;88.91;97567.19;5062056;28;21266;-81
2022/08/17 09:23:34;;;;;;;4.17;3.20;;;22.80;96.10;;;23.63;89.16;97562.53;5062127;28;20465;-80
2022/08/17 09:26:11;;;;;;;8.23;3.97;;;23.00;96.20;;;23.74;88.55;97552.56;5062730;28;20456;-81
2022/08/17 09:28:50;;;;;;;4.83;3.20;;;23.10;96.00;;;23.82;87.08;97559.91;5061406;28;20534;-82
2022/08/17 09:31:27;;;;;;;7.53;3.67;;;23.10;95.60;;;23.90;87.42;97559.31;5059576;28;20581;-81
2022/08/17 09:34:08;;;;;;;8.17;4.20;;;23.20;95.70;;;23.94;86.46;97565.69;5063968;28;20484;-82
2022/08/17 09:36:47;;;;;;;6.97;3.50;;;23.20;95.60;;;23.92;83.49;97563.28;5059924;28;20456;-81
2022/08/17 09:39:29;;;;;;;4.00;3.00;;;23.20;94.90;;;23.91;83.97;97575.06;5060777;28;20475;-80
2022/08/17 09:42:06;;;;;;;5.70;3.30;;;23.20;95.20;;;23.99;84.45;97573.63;5061413;28;21028;-81
2022/08/17 09:44:41;;;;;;;6.23;3.47;;;23.30;95.20;;;24.06;84.87;97579.41;5061877;28;20514;-80
2022/08/17 09:47:21;;;;;;;4.50;3.27;;;23.40;95.30;;;24.13;86.01;97579.09;5060382;28;20467;-80
2022/08/17 09:49:59;;;;;;;5.70;3.27;;;23.50;95.60;;;24.20;85.43;97575.00;5060446;28;20471;-80
2022/08/17 09:52:30;;;;;;;24.77;14.83;;;23.50;95.50;;;24.22;84.47;97567.50;5065909;28;20455;-89
2022/08/17 09:55:00;;;;;;;8.40;3.80;;;23.50;95.00;;;24.28;84.61;97554.88;5061948;28;21579;-82
2022/08/17 09:57:49;;;;;;;4.90;3.50;;;23.50;95.20;;;24.34;83.74;97561.72;5062657;28;20895;-81
2022/08/17 10:00:25;;;;;;;3.90;3.47;;;23.60;95.00;;;24.40;83.74;97560.59;5061222;28;20941;-80
2022/08/17 10:03:27;;;;;;;3.40;3.07;;;23.80;95.00;;;24.41;81.40;97554.97;5061471;28;20518;-81
2022/08/17 10:06:12;;;;;;;4.43;3.87;;;23.70;94.50;;;24.46;80.59;97557.56;5058307;28;20460;-82
2022/08/17 10:08:53;;;;;;;4.60;3.43;;;23.80;94.20;;;24.45;81.60;97558.66;5061743;28;21207;-82
2022/08/17 10:14:28;;;;;;;4.63;3.50;;;23.80;94.60;;;24.54;81.64;97554.22;5059759;28;20586;-82
2022/08/17 10:17:21;;;;;;;7.43;4.20;;;23.80;94.70;;;24.56;82.23;97535.25;5061037;28;20532;-82
2022/08/17 10:20:01;;;;;;;6.07;4.60;;;23.80;94.90;;;24.61;81.28;97515.66;5057612;28;20483;-82
2022/08/17 10:28:29;;;;;;;5.63;3.60;;;24.00;94.40;;;24.69;79.48;97517.66;5061876;28;20468;-81
2022/08/17 10:31:06;;;;;;;5.20;3.57;;;23.90;94.20;;;24.69;77.82;97528.34;5059442;28;20509;-86
2022/08/17 10:34:17;;;;;;;7.63;4.13;;;23.90;93.90;;;24.77;77.60;97535.72;5059573;28;20625;-81
2022/08/17 10:37:00;;;;;;;4.80;3.70;;;24.10;93.80;;;24.81;77.49;97545.56;5061067;28;20519;-81
2022/08/17 10:39:46;;;;;;;7.27;3.80;;;24.20;93.80;;;24.84;77.40;97560.28;5059108;28;20506;-81
2022/08/17 10:42:30;;;;;;;5.30;3.40;;;24.30;93.70;;;24.85;76.56;97567.22;5060967;28;20468;-81
2022/08/17 10:45:15;;;;;;;10.50;3.50;;;24.20;93.40;;;24.81;75.50;97568.84;5058169;28;20802;-81
2022/08/17 10:48:00;;;;;;;6.83;4.37;;;24.10;93.20;;;24.86;76.17;97568.78;5059221;28;20518;-81
2022/08/17 10:51:07;;;;;;;6.20;3.80;;;24.10;93.50;;;24.91;75.75;97574.06;5060843;28;20946;-81
2022/08/17 10:54:00;;;;;;;4.90;4.10;;;24.20;93.50;;;24.94;75.91;97584.19;5064388;28;20484;-82
2022/08/17 10:56:50;;;;;;;6.23;4.37;;;24.40;93.40;;;24.95;76.03;97575.09;5064798;28;20940;-82
2022/08/17 10:59:53;;;;;;;5.10;3.90;;;24.30;93.40;;;25.02;75.73;97570.16;5064230;28;21045;-83
2022/08/17 11:02:30;;;;;;;4.70;4.10;;;24.40;93.50;;;25.08;76.59;97560.97;5064494;28;20472;-82
2022/08/17 11:05:27;;;;;;;5.50;4.03;;;24.50;93.50;;;25.17;76.48;97566.44;5063352;28;20842;-82
2022/08/17 11:08:45;;;;;;;3.83;3.43;;;24.50;93.60;;;25.30;75.97;97568.38;5063371;28;20500;-83
2022/08/17 11:11:51;;;;;;;5.37;4.07;;;24.70;93.40;;;25.43;75.34;97565.72;5065966;28;20502;-81
2022/08/17 11:14:48;;;;;;;4.77;3.87;;;24.80;93.30;;;25.53;75.11;97565.59;5063099;28;20518;-81
2022/08/17 11:17:44;;;;;;;5.60;3.57;;;24.90;93.30;;;25.63;73.95;97559.25;5063368;28;20472;-81
2022/08/17 11:20:56;;;;;;;6.00;3.27;;;25.00;93.00;;;25.73;73.53;97559.06;5063962;28;20536;-82
2022/08/17 11:24:05;;;;;;;3.93;3.50;;;25.10;93.00;;;25.82;73.34;97559.97;5065116;28;20471;-81
2022/08/17 11:26:44;;;;;;;7.03;4.83;;;25.20;93.00;;;25.89;73.25;97564.94;5062855;28;20468;-81